Terminal Aerodrome Forecast
Issued by NWS Detroit/Pontiac, MI

Home | Current Version | Previous Version | Text Only | Print | Product List | Glossary On
Versions: 1 2 3 4 5 6 7 8 9 10 11 12 13
000
FTUS43 KDTX 031125
TAFFNT
TAF
KFNT 031125Z 0312/0412 23005KT P6SM SCT100 BKN250
     FM031500 23013G19KT P6SM BKN100
     FM040100 20007KT P6SM FEW080 SCT250=

USA.gov is the U.S. government's official web portal to all federal, state and local government web resources and services.